createdAt,value
2024-05-09T00:00:42.220Z,7.40
2024-05-09T00:03:11.008Z,7.10
2024-05-09T00:05:40.728Z,5.40
2024-05-09T00:08:08.959Z,8.50
2024-05-09T00:10:38.439Z,8.90
2024-05-09T00:13:07.667Z,9.50
2024-05-09T00:15:35.647Z,8.00
2024-05-09T00:18:04.176Z,8.20
2024-05-09T00:20:37.920Z,7.60
2024-05-09T00:23:12.731Z,5.90
2024-05-09T00:28:12.399Z,8.40
2024-05-09T00:33:08.161Z,7.00
2024-05-09T00:35:36.659Z,5.20
2024-05-09T00:38:04.503Z,10.00
2024-05-09T00:43:10.835Z,6.20
2024-05-09T00:48:08.425Z,7.50
2024-05-09T00:50:39.774Z,11.70
2024-05-09T00:53:08.066Z,8.90
2024-05-09T01:00:38.832Z,6.30
2024-05-09T01:08:07.815Z,9.60
2024-05-09T01:10:36.425Z,9.30
2024-05-09T01:13:04.747Z,10.10
2024-05-09T01:15:31.945Z,9.50
2024-05-09T01:18:01.406Z,8.10
2024-05-09T01:20:39.105Z,6.90
2024-05-09T01:23:10.208Z,11.20
2024-05-09T01:25:38.297Z,9.20
2024-05-09T01:28:05.831Z,10.70
2024-05-09T01:30:36.359Z,10.30
2024-05-09T01:33:08.074Z,11.00
2024-05-09T01:35:37.466Z,9.10
2024-05-09T01:38:05.104Z,9.60
2024-05-09T01:40:37.771Z,9.10
2024-05-09T01:43:11.126Z,9.80
2024-05-09T01:45:40.310Z,8.30
2024-05-09T01:48:10.364Z,9.90
2024-05-09T01:53:15.020Z,6.60
2024-05-09T01:58:10.208Z,4.40
2024-05-09T02:00:41.069Z,9.50
2024-05-09T02:03:14.740Z,10.40
2024-05-09T02:08:17.600Z,8.70
2024-05-09T02:13:13.774Z,11.00
2024-05-09T02:15:40.686Z,9.40
2024-05-09T02:18:08.173Z,11.20
2024-05-09T02:20:37.741Z,7.90
2024-05-09T02:23:06.209Z,11.70
2024-05-09T02:25:34.101Z,10.90
2024-05-09T02:32:58.317Z,13.70
2024-05-09T02:35:26.458Z,13.20
2024-05-09T02:37:53.450Z,10.00
2024-05-09T02:40:28.304Z,14.00
2024-05-09T02:43:00.991Z,9.10
2024-05-09T02:45:27.894Z,12.00
2024-05-09T02:47:54.855Z,9.70
2024-05-09T02:53:04.142Z,7.90
2024-05-09T02:55:31.342Z,9.00
2024-05-09T03:00:34.275Z,11.20
2024-05-09T03:03:08.326Z,9.70
2024-05-09T03:08:04.728Z,11.00
2024-05-09T03:10:36.272Z,12.10
2024-05-09T03:13:09.263Z,8.80
2024-05-09T03:15:36.874Z,10.70
2024-05-09T03:18:05.407Z,9.90
2024-05-09T03:20:35.469Z,6.30
2024-05-09T03:23:05.193Z,10.60
2024-05-09T03:25:32.709Z,5.40
2024-05-09T03:27:59.801Z,10.90
2024-05-09T03:33:18.777Z,11.80
2024-05-09T03:35:47.554Z,8.50
2024-05-09T03:38:15.060Z,10.10
2024-05-09T03:40:46.775Z,12.40
2024-05-09T03:43:14.603Z,9.30
2024-05-09T03:45:45.601Z,9.70
2024-05-09T03:48:14.033Z,6.10
2024-05-09T03:50:41.896Z,9.40
2024-05-09T03:53:13.781Z,9.50
2024-05-09T03:55:41.027Z,9.80
2024-05-09T03:58:08.519Z,11.10
2024-05-09T04:00:38.905Z,3.50
2024-05-09T04:05:43.953Z,9.90
2024-05-09T04:08:12.171Z,10.70
2024-05-09T04:10:39.348Z,7.90
2024-05-09T04:13:06.332Z,5.10
2024-05-09T04:15:33.607Z,8.40
2024-05-09T04:18:01.297Z,7.00
2024-05-09T04:20:37.498Z,2.60
2024-05-09T04:23:10.927Z,7.50
2024-05-09T04:25:38.430Z,7.90
2024-05-09T04:28:07.224Z,6.10
2024-05-09T04:30:38.758Z,6.30
2024-05-09T04:33:14.027Z,6.70
2024-05-09T04:38:10.417Z,6.90
2024-05-09T04:40:38.058Z,7.60
2024-05-09T04:43:06.740Z,12.10
2024-05-09T04:45:34.146Z,11.60
2024-05-09T04:48:01.714Z,7.80
2024-05-09T04:50:35.644Z,7.80
2024-05-09T04:55:33.831Z,9.50
2024-05-09T04:58:00.988Z,9.70
2024-05-09T05:00:35.819Z,126.90
2024-05-09T05:03:07.861Z,130.20
2024-05-09T05:05:40.833Z,83.30
2024-05-09T05:08:19.169Z,23.30
2024-05-09T05:13:18.133Z,12.50
2024-05-09T05:15:47.004Z,27.20
2024-05-09T05:18:18.513Z,9.90
2024-05-09T05:20:45.798Z,6.80
2024-05-09T05:23:15.592Z,6.50
2024-05-09T05:25:43.087Z,3.70
2024-05-09T05:28:10.830Z,11.80
2024-05-09T05:30:39.066Z,14.60
2024-05-09T05:33:07.159Z,10.30
2024-05-09T05:35:35.351Z,9.10
2024-05-09T05:40:36.515Z,10.80
2024-05-09T05:43:10.436Z,3.10
2024-05-09T05:45:39.472Z,11.40
2024-05-09T05:48:07.823Z,9.50
2024-05-09T05:50:37.518Z,5.30
2024-05-09T05:53:07.911Z,7.70
2024-05-09T05:55:42.070Z,9.80
2024-05-09T06:00:40.110Z,4.30
2024-05-09T06:03:10.213Z,9.80
2024-05-09T06:05:44.139Z,7.50
2024-05-09T06:08:11.443Z,7.60
2024-05-09T06:10:40.653Z,7.00
2024-05-09T06:15:39.452Z,7.90
2024-05-09T06:18:08.392Z,10.40
2024-05-09T06:20:37.954Z,8.70
2024-05-09T06:23:06.856Z,4.60
2024-05-09T06:28:02.459Z,8.40
2024-05-09T06:33:10.235Z,5.60
2024-05-09T06:35:38.683Z,3.70
2024-05-09T06:38:08.625Z,6.60
2024-05-09T06:43:15.551Z,6.70
2024-05-09T06:45:46.082Z,1.50
2024-05-09T06:58:11.452Z,8.10
2024-05-09T07:00:41.077Z,4.20
2024-05-09T07:03:12.280Z,7.00
2024-05-09T07:05:40.911Z,8.40
2024-05-09T07:10:36.482Z,7.70
2024-05-09T07:13:15.058Z,7.40
2024-05-09T07:18:11.981Z,8.60
2024-05-09T07:20:40.256Z,7.90
2024-05-09T07:23:12.040Z,10.10
2024-05-09T07:25:40.628Z,8.10
2024-05-09T07:28:14.541Z,11.80
2024-05-09T07:30:42.134Z,5.90
2024-05-09T07:33:09.262Z,10.40
2024-05-09T07:35:36.466Z,4.00
2024-05-09T07:38:03.851Z,8.10
2024-05-09T07:40:35.911Z,11.10
2024-05-09T07:43:08.194Z,7.50
2024-05-09T07:53:36.861Z,6.40
2024-05-09T07:55:56.803Z,5.50
2024-05-09T07:58:28.033Z,8.40
2024-05-09T08:00:55.312Z,7.30
2024-05-09T08:03:22.783Z,8.20
2024-05-09T08:05:51.785Z,12.20
2024-05-09T08:08:18.779Z,7.20
2024-05-09T08:10:46.582Z,2.40
2024-05-09T08:13:13.790Z,7.30
2024-05-09T08:15:40.781Z,3.90
2024-05-09T08:18:09.516Z,9.50
2024-05-09T08:20:38.563Z,6.70
2024-05-09T08:25:32.667Z,5.80
2024-05-09T08:30:33.474Z,6.40
2024-05-09T08:33:05.856Z,6.20
2024-05-09T08:35:33.690Z,6.20
2024-05-09T08:38:03.151Z,4.10
2024-05-09T08:40:35.399Z,4.60
2024-05-09T08:43:10.286Z,4.70
2024-05-09T08:45:42.299Z,6.40
2024-05-09T08:48:12.796Z,7.20
2024-05-09T08:50:41.656Z,6.20
2024-05-09T08:53:09.288Z,9.30
2024-05-09T08:55:40.553Z,7.20
2024-05-09T08:58:17.364Z,5.60
2024-05-09T09:00:46.190Z,5.80
2024-05-09T09:03:18.800Z,6.60
2024-05-09T09:05:54.902Z,6.90
2024-05-09T09:08:22.743Z,6.40
2024-05-09T09:10:53.876Z,5.30
2024-05-09T09:13:20.786Z,5.40
2024-05-09T09:15:51.076Z,3.60
2024-05-09T09:18:18.689Z,4.90
2024-05-09T09:20:46.191Z,4.70
2024-05-09T09:25:40.876Z,2.10
2024-05-09T09:28:08.970Z,6.40
2024-05-09T09:30:43.352Z,4.40
2024-05-09T09:33:10.863Z,4.20
2024-05-09T09:35:40.263Z,6.00
2024-05-09T09:38:08.213Z,5.90
2024-05-09T09:40:42.509Z,4.30
2024-05-09T09:43:22.741Z,4.10
2024-05-09T09:45:52.632Z,7.00
2024-05-09T09:48:21.461Z,2.10
2024-05-09T09:50:51.956Z,3.30
2024-05-09T09:53:19.763Z,4.50
2024-05-09T09:55:48.353Z,6.60
2024-05-09T09:58:17.548Z,4.90
2024-05-09T10:00:45.369Z,4.80
2024-05-09T10:03:12.850Z,5.30
2024-05-09T10:05:43.071Z,4.80
2024-05-09T10:08:13.176Z,8.40
2024-05-09T10:10:45.723Z,9.50
2024-05-09T10:13:13.060Z,4.90
2024-05-09T10:15:53.840Z,5.00
2024-05-09T10:18:27.302Z,7.50
2024-05-09T10:20:56.360Z,4.70
2024-05-09T10:23:32.443Z,4.00
2024-05-09T10:26:05.896Z,3.10
2024-05-09T10:28:35.546Z,5.20
2024-05-09T10:31:15.040Z,5.70
2024-05-09T10:33:49.082Z,7.20
2024-05-09T10:36:24.570Z,5.20
2024-05-09T10:38:56.123Z,5.50
2024-05-09T10:41:24.437Z,6.00
2024-05-09T10:43:52.244Z,4.80
2024-05-09T10:46:20.312Z,5.90
2024-05-09T10:48:48.643Z,6.00
2024-05-09T10:51:17.172Z,7.50
2024-05-09T10:53:45.564Z,5.70
2024-05-09T10:56:17.612Z,5.10
2024-05-09T11:01:13.458Z,7.70
2024-05-09T11:03:41.818Z,6.30
2024-05-09T11:06:11.566Z,4.20
2024-05-09T11:08:39.255Z,6.10
2024-05-09T11:11:08.854Z,3.90
2024-05-09T11:13:38.802Z,4.80
2024-05-09T11:16:26.152Z,6.70
2024-05-09T11:18:55.766Z,6.50
2024-05-09T11:21:23.178Z,4.40
2024-05-09T11:23:50.844Z,5.00
2024-05-09T11:26:19.843Z,5.10
2024-05-09T11:28:47.023Z,5.60
2024-05-09T11:31:14.045Z,4.00
2024-05-09T11:33:48.263Z,5.00
2024-05-09T11:36:16.083Z,5.80
2024-05-09T11:38:43.364Z,6.40
2024-05-09T11:41:18.690Z,5.00
2024-05-09T11:46:13.836Z,4.50
2024-05-09T11:48:41.148Z,7.30
2024-05-09T11:51:08.257Z,6.60
2024-05-09T11:54:09.902Z,7.00
2024-05-09T11:56:36.819Z,4.80
2024-05-09T11:59:03.788Z,3.10
2024-05-09T12:01:30.852Z,5.40
2024-05-09T12:03:58.329Z,5.90
2024-05-09T12:06:25.643Z,7.40
2024-05-09T12:08:52.575Z,4.80
2024-05-09T12:11:19.469Z,5.60
2024-05-09T12:13:46.278Z,5.10
2024-05-09T12:16:13.170Z,7.40
2024-05-09T12:18:40.020Z,11.20
2024-05-09T12:21:06.788Z,5.90
2024-05-09T12:23:33.511Z,5.20
2024-05-09T12:26:00.326Z,6.10
2024-05-09T12:28:27.176Z,7.00
2024-05-09T12:30:54.068Z,9.20
2024-05-09T12:33:21.696Z,5.80
2024-05-09T12:35:50.859Z,4.10
2024-05-09T12:38:18.576Z,4.80
2024-05-09T12:40:45.365Z,6.30
2024-05-09T12:43:13.733Z,6.90
2024-05-09T12:45:40.771Z,5.60
2024-05-09T12:48:11.908Z,3.90
2024-05-09T12:53:06.503Z,4.10
2024-05-09T12:55:41.299Z,7.10
2024-05-09T12:58:18.663Z,5.60
2024-05-09T13:00:46.395Z,4.30
2024-05-09T13:03:13.834Z,5.50
2024-05-09T13:05:41.341Z,4.80
2024-05-09T13:08:08.629Z,6.70
2024-05-09T13:10:35.880Z,5.90
2024-05-09T13:13:05.590Z,8.10
2024-05-09T13:15:42.712Z,6.50
2024-05-09T13:18:09.905Z,5.60
2024-05-09T13:20:37.152Z,0.10
2024-05-09T13:23:06.712Z,6.00
2024-05-09T13:25:35.156Z,5.80
2024-05-09T13:28:03.759Z,5.60
2024-05-09T13:30:39.060Z,5.30
2024-05-09T13:33:11.274Z,1.90
2024-05-09T13:35:39.806Z,4.20
2024-05-09T13:38:07.575Z,6.10
2024-05-09T13:40:36.180Z,4.70
2024-05-09T13:43:06.810Z,4.00
2024-05-09T13:45:34.941Z,6.40
2024-05-09T13:48:03.523Z,4.50
2024-05-09T13:50:34.760Z,3.10
2024-05-09T13:53:05.370Z,4.70
2024-05-09T13:55:33.448Z,5.20
2024-05-09T13:58:01.226Z,5.40
2024-05-09T14:00:41.444Z,4.50
2024-05-09T14:03:14.046Z,6.00
2024-05-09T14:05:41.485Z,4.80
2024-05-09T14:08:08.825Z,5.20
2024-05-09T14:10:35.826Z,4.50
2024-05-09T14:13:02.846Z,4.40
2024-05-09T14:15:30.103Z,6.00
2024-05-09T14:17:57.271Z,5.70
2024-05-09T14:20:30.848Z,4.70
2024-05-09T14:23:01.977Z,5.60
2024-05-09T14:25:30.330Z,4.20
2024-05-09T14:27:58.164Z,3.20
2024-05-09T14:30:34.491Z,4.30
2024-05-09T14:33:05.846Z,5.20
2024-05-09T14:35:33.668Z,5.80
2024-05-09T14:38:00.629Z,5.10
2024-05-09T14:40:37.100Z,4.00
2024-05-09T14:43:14.538Z,6.20
2024-05-09T14:45:42.184Z,4.50
2024-05-09T14:48:09.585Z,5.30
2024-05-09T14:50:39.266Z,6.60
2024-05-09T14:53:09.439Z,5.30
2024-05-09T14:55:38.790Z,5.20
2024-05-09T15:00:41.318Z,4.60
2024-05-09T15:05:39.075Z,3.90
2024-05-09T15:08:07.836Z,4.10
2024-05-09T15:10:37.955Z,4.10
2024-05-09T15:13:07.047Z,5.30
2024-05-09T15:15:35.582Z,4.70
2024-05-09T15:18:06.605Z,3.90
2024-05-09T15:20:36.932Z,4.50
2024-05-09T15:23:05.518Z,4.80
2024-05-09T15:25:33.837Z,4.20
2024-05-09T15:28:00.902Z,5.00
2024-05-09T15:30:31.122Z,5.40
2024-05-09T15:33:01.233Z,4.60
2024-05-09T15:35:29.168Z,6.30
2024-05-09T15:37:56.586Z,5.10
2024-05-09T15:40:34.461Z,5.60
2024-05-09T15:43:06.721Z,7.10
2024-05-09T15:45:34.457Z,5.20
2024-05-09T15:48:02.601Z,5.90
2024-05-09T15:50:36.940Z,4.30
2024-05-09T15:53:08.720Z,5.30
2024-05-09T15:55:36.528Z,5.40
2024-05-09T15:58:05.040Z,5.60
2024-05-09T16:00:39.206Z,4.60
2024-05-09T16:03:15.824Z,4.80
2024-05-09T16:05:48.745Z,7.80
2024-05-09T16:08:16.300Z,6.40
2024-05-09T16:10:46.051Z,4.60
2024-05-09T16:13:14.718Z,4.80
2024-05-09T16:15:43.605Z,5.80
2024-05-09T16:18:10.806Z,5.70
2024-05-09T16:20:41.750Z,12.10
2024-05-09T16:23:10.711Z,5.20
2024-05-09T16:25:38.998Z,4.80
2024-05-09T16:28:09.012Z,5.80
2024-05-09T16:30:41.325Z,10.00
2024-05-09T16:33:08.992Z,8.80
2024-05-09T16:35:37.283Z,4.50
2024-05-09T16:38:04.847Z,7.80
2024-05-09T16:40:39.032Z,4.20
2024-05-09T16:43:09.111Z,5.20
2024-05-09T16:45:37.685Z,7.70
2024-05-09T16:48:06.295Z,5.50
2024-05-09T16:50:35.029Z,7.30
2024-05-09T16:53:04.501Z,7.40
2024-05-09T16:55:32.150Z,6.00
2024-05-09T16:58:00.534Z,5.20
2024-05-09T17:00:38.140Z,5.10
2024-05-09T17:03:11.232Z,5.10
2024-05-09T17:05:39.425Z,6.20
2024-05-09T17:08:07.332Z,2.70
2024-05-09T17:10:35.949Z,6.40
2024-05-09T17:13:04.973Z,5.60
2024-05-09T17:15:33.963Z,4.80
2024-05-09T17:18:03.334Z,6.20
2024-05-09T17:20:34.559Z,7.10
2024-05-09T17:23:05.360Z,5.60
2024-05-09T17:25:34.123Z,8.10
2024-05-09T17:28:07.003Z,5.10
2024-05-09T17:30:38.345Z,6.50
2024-05-09T17:33:09.104Z,6.50
2024-05-09T17:38:07.616Z,4.10
2024-05-09T17:40:37.004Z,4.90
2024-05-09T17:43:07.067Z,4.70
2024-05-09T17:45:40.692Z,4.90
2024-05-09T17:48:09.569Z,5.30
2024-05-09T17:50:37.950Z,6.70
2024-05-09T17:53:06.541Z,5.80
2024-05-09T17:55:34.002Z,6.40
2024-05-09T17:58:01.762Z,6.50
2024-05-09T18:00:36.854Z,7.50
2024-05-09T18:03:08.191Z,5.80
2024-05-09T18:05:36.736Z,5.80
2024-05-09T18:08:05.271Z,6.90
2024-05-09T18:10:36.834Z,6.90
2024-05-09T18:13:08.226Z,5.10
2024-05-09T18:15:35.625Z,7.00
2024-05-09T18:18:03.274Z,5.70
2024-05-09T18:20:39.374Z,7.10
2024-05-09T18:23:10.870Z,5.20
2024-05-09T18:25:37.773Z,4.30
2024-05-09T18:28:05.736Z,9.50
2024-05-09T18:30:48.345Z,5.70
2024-05-09T18:33:17.038Z,19.90
2024-05-09T18:35:45.187Z,50.90
2024-05-09T18:38:12.688Z,39.40
2024-05-09T18:40:41.166Z,25.20
2024-05-09T18:43:10.533Z,19.40
2024-05-09T18:45:38.446Z,17.30
2024-05-09T18:48:07.356Z,23.90
2024-05-09T18:50:38.589Z,10.30
2024-05-09T18:53:08.342Z,36.60
2024-05-09T18:55:35.604Z,15.10
2024-05-09T18:58:03.705Z,10.60
2024-05-09T19:00:35.349Z,16.90
2024-05-09T19:03:11.252Z,13.10
2024-05-09T19:05:40.994Z,19.50
2024-05-09T19:08:08.847Z,14.90
2024-05-09T19:10:38.445Z,14.20
2024-05-09T19:13:09.254Z,16.70
2024-05-09T19:18:07.543Z,14.20
2024-05-09T19:20:36.385Z,11.60
2024-05-09T19:23:05.354Z,8.40
2024-05-09T19:25:33.033Z,9.20
2024-05-09T19:28:00.411Z,11.60
2024-05-09T19:30:36.701Z,6.60
2024-05-09T19:33:08.723Z,6.70
2024-05-09T19:35:36.230Z,8.10
2024-05-09T19:38:03.284Z,6.10
2024-05-09T19:40:32.466Z,8.50
2024-05-09T19:43:02.581Z,7.90
2024-05-09T19:45:30.308Z,7.50
2024-05-09T19:47:57.619Z,5.70
2024-05-09T19:50:32.446Z,6.10
2024-05-09T19:53:09.874Z,6.70
2024-05-09T19:55:37.046Z,9.00
2024-05-09T19:58:05.613Z,9.40
2024-05-09T20:00:36.806Z,11.60
2024-05-09T20:05:33.446Z,17.60
2024-05-09T20:10:32.463Z,21.20
2024-05-09T20:13:02.626Z,13.40
2024-05-09T20:15:29.800Z,11.80
2024-05-09T20:17:56.879Z,11.40
2024-05-09T20:20:32.811Z,9.60
2024-05-09T20:23:06.051Z,7.40
2024-05-09T20:26:05.832Z,11.60
2024-05-09T20:28:37.184Z,8.50
2024-05-09T20:31:04.510Z,7.70
2024-05-09T20:33:31.364Z,6.40
2024-05-09T20:36:00.519Z,14.30
2024-05-09T20:38:28.569Z,14.70
2024-05-09T20:43:23.033Z,12.00
2024-05-09T20:45:49.821Z,11.80
2024-05-09T20:48:16.791Z,16.80
2024-05-09T20:50:43.867Z,20.90
2024-05-09T20:53:12.495Z,25.50
2024-05-09T20:55:40.606Z,27.30
2024-05-09T20:58:10.511Z,16.20
2024-05-09T21:00:42.727Z,12.80
2024-05-09T21:03:13.479Z,13.00
2024-05-09T21:05:43.161Z,13.50
2024-05-09T21:08:10.228Z,8.70
2024-05-09T21:10:37.732Z,10.60
2024-05-09T21:13:05.876Z,6.00
2024-05-09T21:15:33.767Z,8.40
2024-05-09T21:20:31.568Z,7.00
2024-05-09T21:23:01.289Z,5.40
2024-05-09T21:25:28.545Z,7.10
2024-05-09T21:27:55.621Z,5.70
2024-05-09T21:30:32.178Z,7.50
2024-05-09T21:33:13.172Z,7.50
2024-05-09T21:38:08.461Z,10.70
2024-05-09T21:40:37.351Z,6.40
2024-05-09T21:43:06.724Z,6.90
2024-05-09T21:45:35.012Z,4.10
2024-05-09T21:48:07.778Z,9.40
2024-05-09T21:50:40.115Z,8.30
2024-05-09T21:53:10.508Z,8.10
2024-05-09T21:55:37.544Z,8.00
2024-05-09T21:58:04.648Z,10.40
2024-05-09T22:00:36.938Z,7.20
2024-05-09T22:03:10.675Z,6.90
2024-05-09T22:05:41.452Z,7.90
2024-05-09T22:08:08.279Z,6.90
2024-05-09T22:10:36.653Z,8.50
2024-05-09T22:13:05.691Z,8.90
2024-05-09T22:18:07.318Z,9.50
2024-05-09T22:20:38.296Z,9.00
2024-05-09T22:23:08.387Z,9.60
2024-05-09T22:25:36.935Z,8.50
2024-05-09T22:28:04.428Z,2.00
2024-05-09T22:30:36.598Z,9.10
2024-05-09T22:33:10.966Z,9.60
2024-05-09T22:35:40.082Z,9.40
2024-05-09T22:38:06.987Z,7.70
2024-05-09T22:40:43.324Z,8.50
2024-05-09T22:43:23.223Z,9.30
2024-05-09T22:45:54.271Z,13.50
2024-05-09T22:48:21.709Z,5.00
2024-05-09T22:50:48.790Z,11.90
2024-05-09T22:53:15.679Z,20.70
2024-05-09T22:55:42.604Z,16.70
2024-05-09T22:58:09.636Z,14.10
2024-05-09T23:00:38.846Z,9.30
2024-05-09T23:03:06.307Z,8.30
2024-05-09T23:05:33.512Z,7.60
2024-05-09T23:08:02.059Z,18.80
2024-05-09T23:10:35.557Z,11.00
2024-05-09T23:15:34.054Z,11.90
2024-05-09T23:18:01.204Z,11.20
2024-05-09T23:20:36.240Z,7.30
2024-05-09T23:23:07.003Z,7.10
2024-05-09T23:25:34.624Z,8.90
2024-05-09T23:28:01.702Z,6.70
2024-05-09T23:30:36.261Z,7.40
2024-05-09T23:33:06.943Z,8.30
2024-05-09T23:35:33.941Z,10.10
2024-05-09T23:38:00.782Z,16.50
2024-05-09T23:40:37.426Z,33.10
2024-05-09T23:43:11.259Z,31.60
2024-05-09T23:45:38.932Z,29.70
2024-05-09T23:48:06.591Z,28.20
2024-05-09T23:50:36.698Z,26.90
2024-05-09T23:53:07.505Z,26.00
2024-05-09T23:58:02.512Z,21.70
